createdAt,value
2017-11-17T00:01:26.138Z,26.90
2017-11-17T00:03:55.771Z,25.77
2017-11-17T00:06:25.705Z,28.53
2017-11-17T00:08:56.051Z,23.50
2017-11-17T00:11:26.037Z,26.30
2017-11-17T00:13:55.929Z,24.80
2017-11-17T00:16:26.551Z,24.67
2017-11-17T00:18:56.373Z,25.23
2017-11-17T00:21:26.096Z,25.40
2017-11-17T00:23:56.524Z,25.73
2017-11-17T00:26:26.243Z,26.00
2017-11-17T00:28:56.171Z,25.97
2017-11-17T00:31:26.911Z,24.13
2017-11-17T00:33:57.221Z,26.13
2017-11-17T00:36:26.886Z,24.13
2017-11-17T00:38:56.606Z,25.83
2017-11-17T00:41:26.491Z,25.40
2017-11-17T00:43:56.518Z,26.17
2017-11-17T00:46:26.649Z,29.63
2017-11-17T00:48:56.658Z,24.83
2017-11-17T00:51:26.642Z,23.43
2017-11-17T00:53:56.795Z,23.13
2017-11-17T00:56:26.777Z,25.00
2017-11-17T00:58:56.964Z,23.50
2017-11-17T01:01:26.878Z,24.07
2017-11-17T01:03:56.831Z,24.07
2017-11-17T01:06:27.810Z,23.97
2017-11-17T01:08:57.477Z,25.63
2017-11-17T01:11:27.102Z,24.03
2017-11-17T01:13:57.155Z,22.70
2017-11-17T01:16:27.148Z,24.10
2017-11-17T01:18:57.332Z,22.43
2017-11-17T01:21:27.879Z,22.93
2017-11-17T01:23:57.556Z,24.73
2017-11-17T01:26:27.437Z,23.53
2017-11-17T01:28:57.537Z,25.23
2017-11-17T01:31:27.537Z,25.93
2017-11-17T01:33:57.571Z,24.50
2017-11-17T01:36:27.697Z,23.17
2017-11-17T01:38:57.781Z,23.90
2017-11-17T01:41:27.827Z,22.43
2017-11-17T01:43:57.869Z,22.97
2017-11-17T01:46:28.422Z,23.87
2017-11-17T01:48:58.382Z,24.27
2017-11-17T01:51:28.546Z,25.63
2017-11-17T01:53:59.020Z,25.73
2017-11-17T01:56:28.656Z,24.10
2017-11-17T01:58:58.565Z,25.40
2017-11-17T02:01:28.687Z,23.80
2017-11-17T02:03:58.769Z,26.53
2017-11-17T02:06:28.741Z,23.90
2017-11-17T02:08:58.845Z,23.70
2017-11-17T02:11:28.843Z,24.37
2017-11-17T02:13:58.959Z,23.47
2017-11-17T02:16:29.041Z,23.23
2017-11-17T02:18:59.198Z,24.90
2017-11-17T02:21:29.166Z,24.73
2017-11-17T02:23:59.255Z,25.37
2017-11-17T02:26:29.393Z,23.67
2017-11-17T02:28:59.290Z,24.97
2017-11-17T02:31:29.407Z,24.37
2017-11-17T02:34:00.082Z,24.53
2017-11-17T02:36:29.700Z,23.20
2017-11-17T02:38:59.568Z,24.27
2017-11-17T02:41:29.597Z,24.07
2017-11-17T02:43:59.704Z,24.60
2017-11-17T02:46:29.730Z,24.57
2017-11-17T02:48:59.786Z,24.13
2017-11-17T02:51:29.899Z,22.97
2017-11-17T02:53:59.900Z,25.27
2017-11-17T02:56:30.029Z,23.77
2017-11-17T02:59:00.123Z,25.00
2017-11-17T03:01:30.005Z,24.03
2017-11-17T03:04:00.148Z,25.10
2017-11-17T03:06:30.161Z,25.10
2017-11-17T03:09:00.272Z,24.97
2017-11-17T03:11:30.323Z,23.00
2017-11-17T03:14:00.319Z,25.50
2017-11-17T03:16:30.688Z,23.93
2017-11-17T03:19:00.454Z,22.80
2017-11-17T03:21:30.473Z,23.57
2017-11-17T03:24:00.489Z,24.13
2017-11-17T03:26:30.544Z,24.53
2017-11-17T03:29:00.746Z,25.57
2017-11-17T03:31:30.792Z,25.97
2017-11-17T03:34:00.881Z,25.37
2017-11-17T03:36:30.901Z,26.37
2017-11-17T03:39:00.938Z,24.50
2017-11-17T03:41:31.111Z,26.50
2017-11-17T03:44:01.244Z,25.70
2017-11-17T03:46:31.201Z,23.93
2017-11-17T03:49:01.271Z,24.73
2017-11-17T03:51:32.058Z,25.40
2017-11-17T03:54:01.805Z,25.77
2017-11-17T03:56:31.461Z,24.47
2017-11-17T03:59:01.466Z,24.40
2017-11-17T04:01:31.454Z,26.50
2017-11-17T04:04:02.033Z,25.20
2017-11-17T04:06:31.666Z,25.97
2017-11-17T04:09:01.611Z,24.77
2017-11-17T04:11:31.763Z,25.40
2017-11-17T04:14:02.205Z,26.53
2017-11-17T04:16:32.479Z,26.97
2017-11-17T04:19:02.131Z,26.23
2017-11-17T04:21:31.920Z,27.00
2017-11-17T04:24:02.202Z,27.33
2017-11-17T04:26:32.051Z,27.77
2017-11-17T04:29:02.185Z,26.20
2017-11-17T04:31:32.582Z,27.57
2017-11-17T04:34:02.227Z,26.50
2017-11-17T04:36:32.224Z,28.20
2017-11-17T04:39:03.082Z,27.70
2017-11-17T04:41:32.689Z,28.30
2017-11-17T04:44:02.417Z,26.43
2017-11-17T04:46:32.495Z,27.17
2017-11-17T04:49:02.534Z,29.10
2017-11-17T04:51:32.639Z,27.70
2017-11-17T04:54:02.875Z,28.17
2017-11-17T04:56:32.764Z,28.63
2017-11-17T04:59:02.829Z,27.57
2017-11-17T05:01:32.848Z,28.97
2017-11-17T05:04:03.123Z,26.50
2017-11-17T05:06:32.910Z,26.13
2017-11-17T05:09:03.038Z,26.90
2017-11-17T05:11:33.107Z,28.10
2017-11-17T05:14:03.094Z,27.83
2017-11-17T05:16:33.139Z,26.63
2017-11-17T05:19:03.233Z,26.93
2017-11-17T05:21:33.246Z,26.40
2017-11-17T05:24:03.360Z,26.63
2017-11-17T05:26:33.375Z,23.43
2017-11-17T05:29:03.408Z,24.93
2017-11-17T05:31:33.530Z,28.00
2017-11-17T05:34:03.744Z,26.10
2017-11-17T05:36:33.716Z,24.97
2017-11-17T05:39:03.809Z,26.00
2017-11-17T05:41:33.890Z,25.93
2017-11-17T05:44:03.736Z,27.10
2017-11-17T05:46:33.847Z,25.77
2017-11-17T05:49:03.852Z,26.03
2017-11-17T05:51:33.789Z,26.67
2017-11-17T05:54:03.903Z,26.70
2017-11-17T05:56:34.064Z,27.97
2017-11-17T05:59:04.681Z,28.17
2017-11-17T06:01:34.285Z,26.23
2017-11-17T06:04:04.051Z,26.10
2017-11-17T06:06:34.115Z,26.73
2017-11-17T06:09:04.149Z,26.80
2017-11-17T06:11:34.062Z,26.10
2017-11-17T06:14:04.227Z,26.73
2017-11-17T06:16:34.114Z,26.43
2017-11-17T06:19:04.617Z,27.63
2017-11-17T06:21:34.214Z,26.60
2017-11-17T06:24:04.520Z,28.30
2017-11-17T06:26:34.303Z,26.40
2017-11-17T06:29:05.415Z,28.87
2017-11-17T06:31:35.126Z,30.33
2017-11-17T06:34:04.726Z,32.57
2017-11-17T06:36:34.518Z,30.30
2017-11-17T06:39:04.548Z,40.97
2017-11-17T06:41:34.643Z,34.03
2017-11-17T06:44:04.708Z,33.90
2017-11-17T06:46:34.660Z,30.67
2017-11-17T06:49:04.799Z,30.83
2017-11-17T06:51:36.330Z,30.17
2017-11-17T06:54:05.969Z,29.80
2017-11-17T06:56:35.568Z,31.10
2017-11-17T06:59:05.174Z,28.10
2017-11-17T07:01:34.955Z,28.97
2017-11-17T07:04:04.995Z,27.80
2017-11-17T07:06:35.121Z,26.97
2017-11-17T07:09:05.126Z,28.00
2017-11-17T07:11:35.153Z,27.63
2017-11-17T07:14:05.265Z,27.50
2017-11-17T07:16:35.181Z,26.93
2017-11-17T07:19:05.238Z,26.70
2017-11-17T07:21:35.200Z,25.57
2017-11-17T07:24:05.401Z,25.80
2017-11-17T07:26:35.352Z,27.87
2017-11-17T07:29:05.386Z,25.77
2017-11-17T07:31:35.361Z,27.23
2017-11-17T07:34:05.430Z,28.93
2017-11-17T07:36:35.518Z,26.80
2017-11-17T07:39:05.745Z,26.17
2017-11-17T07:41:35.661Z,26.70
2017-11-17T07:44:05.673Z,26.13
2017-11-17T07:46:35.892Z,26.80
2017-11-17T07:49:05.709Z,28.40
2017-11-17T07:51:35.844Z,29.63
2017-11-17T07:54:05.820Z,28.77
2017-11-17T07:56:35.969Z,28.33
2017-11-17T07:59:05.994Z,27.13
2017-11-17T08:01:35.994Z,26.90
2017-11-17T08:04:06.089Z,26.30
2017-11-17T08:06:36.209Z,26.23
2017-11-17T08:09:06.455Z,27.47
2017-11-17T08:11:36.500Z,26.70
2017-11-17T08:14:06.290Z,25.00
2017-11-17T08:16:36.208Z,25.67
2017-11-17T08:19:06.331Z,26.43
2017-11-17T08:21:36.358Z,25.00
2017-11-17T08:24:07.511Z,25.70
2017-11-17T08:26:37.121Z,25.90
2017-11-17T08:29:06.736Z,27.50
2017-11-17T08:31:36.968Z,27.23
2017-11-17T08:34:06.840Z,25.80
2017-11-17T08:36:36.815Z,25.50
2017-11-17T08:39:06.822Z,25.43
2017-11-17T08:41:37.730Z,25.00
2017-11-17T08:44:07.987Z,26.17
2017-11-17T08:46:37.602Z,25.33
2017-11-17T08:49:07.224Z,29.00
2017-11-17T08:51:36.829Z,28.20
2017-11-17T08:54:06.924Z,28.37
2017-11-17T08:56:37.048Z,27.33
2017-11-17T08:59:07.058Z,26.10
2017-11-17T09:01:37.252Z,26.03
2017-11-17T09:04:07.192Z,26.00
2017-11-17T09:06:37.144Z,25.03
2017-11-17T09:09:07.308Z,24.77
2017-11-17T09:11:37.319Z,25.53
2017-11-17T09:14:07.206Z,26.47
2017-11-17T09:16:37.387Z,27.27
2017-11-17T09:19:07.387Z,28.07
2017-11-17T09:21:37.353Z,26.43
2017-11-17T09:24:07.459Z,26.17
2017-11-17T09:26:37.585Z,25.47
2017-11-17T09:29:07.658Z,26.37
2017-11-17T09:31:37.676Z,27.03
2017-11-17T09:34:07.714Z,27.17
2017-11-17T09:36:37.821Z,26.70
2017-11-17T09:39:08.478Z,27.17
2017-11-17T09:41:38.873Z,26.80
2017-11-17T09:44:08.864Z,26.57
2017-11-17T09:46:38.473Z,27.47
2017-11-17T09:49:08.056Z,28.03
2017-11-17T09:51:38.024Z,27.17
2017-11-17T09:54:08.051Z,27.90
2017-11-17T09:56:38.054Z,29.00
2017-11-17T09:59:08.215Z,27.97
2017-11-17T10:01:38.226Z,27.50
2017-11-17T10:04:08.341Z,29.70
2017-11-17T10:06:38.395Z,29.77
2017-11-17T10:09:08.437Z,29.77
2017-11-17T10:11:38.392Z,29.70
2017-11-17T10:14:08.381Z,28.50
2017-11-17T10:16:38.390Z,30.30
2017-11-17T10:19:08.398Z,29.90
2017-11-17T10:21:38.555Z,30.67
2017-11-17T10:24:08.576Z,27.80
2017-11-17T10:26:38.599Z,31.23
2017-11-17T10:29:08.697Z,28.87
2017-11-17T10:31:38.736Z,29.40
2017-11-17T10:34:08.848Z,29.07
2017-11-17T10:36:38.836Z,27.53
2017-11-17T10:39:08.879Z,27.70
2017-11-17T10:41:39.012Z,28.10
2017-11-17T10:44:08.885Z,27.83
2017-11-17T10:46:38.943Z,25.77
2017-11-17T10:49:09.046Z,26.00
2017-11-17T10:51:39.067Z,26.77
2017-11-17T10:54:09.764Z,27.17
2017-11-17T10:56:39.470Z,27.10
2017-11-17T10:59:09.517Z,26.77
2017-11-17T11:01:39.518Z,25.93
2017-11-17T11:04:09.582Z,26.27
2017-11-17T11:06:39.574Z,28.33
2017-11-17T11:09:09.585Z,28.13
2017-11-17T11:11:45.417Z,27.50
2017-11-17T11:14:15.054Z,27.50
2017-11-17T11:16:44.741Z,28.17
2017-11-17T11:19:14.742Z,28.87
2017-11-17T11:21:44.870Z,28.23
2017-11-17T11:24:15.034Z,29.53
2017-11-17T11:26:45.027Z,28.60
2017-11-17T11:29:14.938Z,29.80
2017-11-17T11:31:44.935Z,28.63
2017-11-17T11:34:15.045Z,26.77
2017-11-17T11:36:45.155Z,27.30
2017-11-17T11:39:15.220Z,26.27
2017-11-17T11:41:45.155Z,27.13
2017-11-17T11:44:15.381Z,26.93
2017-11-17T11:46:46.092Z,26.67
2017-11-17T11:49:15.707Z,26.30
2017-11-17T11:51:45.445Z,28.80
2017-11-17T11:54:15.452Z,26.70
2017-11-17T11:56:45.529Z,29.37
2017-11-17T11:59:15.535Z,27.60
2017-11-17T12:01:45.573Z,27.83
2017-11-17T12:04:15.590Z,27.13
2017-11-17T12:06:46.412Z,25.63
2017-11-17T12:09:16.588Z,26.63
2017-11-17T12:11:46.218Z,28.77
2017-11-17T12:14:15.847Z,27.97
2017-11-17T12:16:45.890Z,27.73
2017-11-17T12:19:15.955Z,26.80
2017-11-17T12:21:46.083Z,27.47
2017-11-17T12:24:16.055Z,26.83
2017-11-17T12:26:46.560Z,26.47
2017-11-17T12:29:16.625Z,30.00
2017-11-17T12:31:46.698Z,28.17
2017-11-17T12:34:16.716Z,28.43
2017-11-17T12:36:46.748Z,27.50
2017-11-17T12:39:16.871Z,29.30
2017-11-17T12:41:46.897Z,27.97
2017-11-17T12:44:16.892Z,26.73
2017-11-17T12:46:46.894Z,29.10
2017-11-17T12:49:16.960Z,28.47
2017-11-17T12:51:47.363Z,30.30
2017-11-17T12:54:17.135Z,29.40
2017-11-17T12:56:47.082Z,27.87
2017-11-17T12:59:17.081Z,28.03
2017-11-17T13:01:47.096Z,30.43
2017-11-17T13:04:17.117Z,29.13
2017-11-17T13:06:47.206Z,30.73
2017-11-17T13:09:17.915Z,30.20
2017-11-17T13:11:47.540Z,29.53
2017-11-17T13:14:17.414Z,28.50
2017-11-17T13:16:47.321Z,28.93
2017-11-17T13:19:17.454Z,28.70
2017-11-17T13:21:48.567Z,29.03
2017-11-17T13:24:18.270Z,29.07
2017-11-17T13:26:48.130Z,29.30
2017-11-17T13:29:19.899Z,30.03
2017-11-17T13:31:51.874Z,29.07
2017-11-17T13:34:21.834Z,30.30
2017-11-17T13:36:51.539Z,29.93
2017-11-17T13:39:21.498Z,29.33
2017-11-17T13:41:52.320Z,29.23
2017-11-17T13:44:22.001Z,29.87
2017-11-17T13:46:53.526Z,29.47
2017-11-17T13:49:23.891Z,30.77
2017-11-17T13:51:54.339Z,32.17
2017-11-17T13:54:24.258Z,31.73
2017-11-17T13:56:54.605Z,33.03
2017-11-17T13:59:24.451Z,31.47
2017-11-17T14:01:54.486Z,31.13
2017-11-17T14:04:25.036Z,30.83
2017-11-17T14:06:54.679Z,30.00
2017-11-17T14:09:24.968Z,30.93
2017-11-17T14:11:54.748Z,30.10
2017-11-17T14:14:24.627Z,30.67
2017-11-17T14:16:54.817Z,30.63
2017-11-17T14:19:25.860Z,30.57
2017-11-17T14:21:56.075Z,28.97
2017-11-17T14:24:25.678Z,29.30
2017-11-17T14:26:55.284Z,29.63
2017-11-17T14:29:24.892Z,29.90
2017-11-17T14:31:55.056Z,29.37
2017-11-17T14:34:25.025Z,28.83
2017-11-17T14:36:55.847Z,29.63
2017-11-17T14:39:25.894Z,30.87
2017-11-17T14:41:55.942Z,31.47
2017-11-17T14:44:26.552Z,29.50
2017-11-17T14:46:56.248Z,32.10
2017-11-17T14:49:25.959Z,29.80
2017-11-17T14:51:55.562Z,30.47
2017-11-17T14:54:25.492Z,29.93
2017-11-17T14:56:55.329Z,30.27
2017-11-17T14:59:25.556Z,29.97
2017-11-17T15:01:55.596Z,30.83
2017-11-17T15:04:26.600Z,30.47
2017-11-17T15:06:56.211Z,29.90
2017-11-17T15:09:25.871Z,30.70
2017-11-17T15:11:55.715Z,28.67
2017-11-17T15:14:25.840Z,30.83
2017-11-17T15:16:55.947Z,31.40
2017-11-17T15:19:25.993Z,30.83
2017-11-17T15:21:55.895Z,30.23
2017-11-17T15:24:25.920Z,28.37
2017-11-17T15:26:56.039Z,29.57
2017-11-17T15:29:26.189Z,29.57
2017-11-17T15:31:56.370Z,28.93
2017-11-17T15:34:26.236Z,30.27
2017-11-17T15:36:56.344Z,31.00
2017-11-17T15:39:26.217Z,30.20
2017-11-17T15:41:56.688Z,30.03
2017-11-17T15:44:26.462Z,30.80
2017-11-17T15:46:56.483Z,32.13
2017-11-17T15:49:26.960Z,31.77
2017-11-17T15:51:56.636Z,30.27
2017-11-17T15:54:27.343Z,31.77
2017-11-17T15:56:57.627Z,31.40
2017-11-17T15:59:27.318Z,30.63
2017-11-17T16:01:57.347Z,32.50
2017-11-17T16:04:27.026Z,31.83
2017-11-17T16:06:56.951Z,32.33
2017-11-17T16:09:27.130Z,33.47
2017-11-17T16:11:56.871Z,32.73
2017-11-17T16:14:26.991Z,31.27
2017-11-17T16:16:57.075Z,30.70
2017-11-17T16:19:26.999Z,27.70
2017-11-17T16:21:57.024Z,28.77
2017-11-17T16:24:27.163Z,28.93
2017-11-17T16:26:57.257Z,29.10
2017-11-17T16:29:27.273Z,29.47
2017-11-17T16:31:57.163Z,29.87
2017-11-17T16:34:27.285Z,30.87
2017-11-17T16:36:57.326Z,32.87
2017-11-17T16:39:27.285Z,32.57
2017-11-17T16:41:57.338Z,30.23
2017-11-17T16:44:27.318Z,32.07
2017-11-17T16:46:57.367Z,32.37
2017-11-17T16:49:27.323Z,31.93
2017-11-17T16:51:57.399Z,31.80
2017-11-17T16:54:27.444Z,31.90
2017-11-17T16:56:57.453Z,32.17
2017-11-17T16:59:27.580Z,29.97
2017-11-17T17:01:57.600Z,33.50
2017-11-17T17:04:27.569Z,34.83
2017-11-17T17:06:57.637Z,32.53
2017-11-17T17:09:27.662Z,31.63
2017-11-17T17:11:57.763Z,32.33
2017-11-17T17:14:28.117Z,32.83
2017-11-17T17:16:58.157Z,32.93
2017-11-17T17:19:28.242Z,33.40
2017-11-17T17:21:58.380Z,33.00
2017-11-17T17:24:28.579Z,31.27
2017-11-17T17:26:58.428Z,31.00
2017-11-17T17:29:29.189Z,31.90
2017-11-17T17:31:58.749Z,34.83
2017-11-17T17:34:28.577Z,31.37
2017-11-17T17:36:58.548Z,27.97
2017-11-17T17:39:28.656Z,30.57
2017-11-17T17:41:59.513Z,29.57
2017-11-17T17:44:29.112Z,30.00
2017-11-17T17:46:58.698Z,30.27
2017-11-17T17:49:28.739Z,31.43
2017-11-17T17:51:58.863Z,33.53
2017-11-17T17:54:29.149Z,29.43
2017-11-17T17:56:58.938Z,32.60
2017-11-17T17:59:29.063Z,32.17
2017-11-17T18:01:59.150Z,30.80
2017-11-17T18:04:28.954Z,31.13
2017-11-17T18:06:58.999Z,32.60
2017-11-17T18:09:29.052Z,32.13
2017-11-17T18:11:59.032Z,34.00
2017-11-17T18:14:29.075Z,32.40
2017-11-17T18:16:59.185Z,30.10
2017-11-17T18:19:29.116Z,31.20
2017-11-17T18:21:59.123Z,32.90
2017-11-17T18:24:29.228Z,32.70
2017-11-17T18:26:59.264Z,31.13
2017-11-17T18:29:29.201Z,31.07
2017-11-17T18:31:59.226Z,31.57
2017-11-17T18:34:29.355Z,29.03
2017-11-17T18:36:59.260Z,29.93
2017-11-17T18:39:29.295Z,30.27
2017-11-17T18:41:59.253Z,29.73
2017-11-17T18:44:29.403Z,30.10
2017-11-17T18:46:59.570Z,28.50
2017-11-17T18:49:29.402Z,29.93
2017-11-17T18:51:59.426Z,32.10
2017-11-17T18:54:29.604Z,32.67
2017-11-17T18:56:59.538Z,34.30
2017-11-17T18:59:29.613Z,32.97
2017-11-17T19:02:00.079Z,35.27
2017-11-17T19:04:29.714Z,31.90
2017-11-17T19:06:59.704Z,29.53
2017-11-17T19:09:29.581Z,31.83
2017-11-17T19:11:59.554Z,31.93
2017-11-17T19:14:29.600Z,28.67
2017-11-17T19:16:59.607Z,29.80
2017-11-17T19:19:29.790Z,31.80
2017-11-17T19:21:59.699Z,30.73
2017-11-17T19:24:29.636Z,32.13
2017-11-17T19:26:59.717Z,31.17
2017-11-17T19:29:29.851Z,32.80
2017-11-17T19:31:59.936Z,30.93
2017-11-17T19:34:29.980Z,33.87
2017-11-17T19:37:00.067Z,31.10
2017-11-17T19:39:30.549Z,37.67
2017-11-17T19:42:00.163Z,35.00
2017-11-17T19:44:29.991Z,32.10
2017-11-17T19:47:00.067Z,34.53
2017-11-17T19:49:29.896Z,34.23
2017-11-17T19:52:00.040Z,33.90
2017-11-17T19:54:30.132Z,31.73
2017-11-17T19:57:00.191Z,34.27
2017-11-17T19:59:30.148Z,33.17
2017-11-17T20:02:00.221Z,32.80
2017-11-17T20:04:30.334Z,32.90
2017-11-17T20:07:00.291Z,33.90
2017-11-17T20:09:30.251Z,33.00
2017-11-17T20:12:00.367Z,33.03
2017-11-17T20:14:30.477Z,31.37
2017-11-17T20:17:00.869Z,33.67
2017-11-17T20:19:30.835Z,34.27
2017-11-17T20:22:01.037Z,32.27
2017-11-17T20:24:30.797Z,32.47
2017-11-17T20:27:00.798Z,34.87
2017-11-17T20:29:30.871Z,36.53
2017-11-17T20:32:00.791Z,43.57
2017-11-17T20:34:32.161Z,39.47
2017-11-17T20:37:01.804Z,43.30
2017-11-17T20:39:31.450Z,41.63
2017-11-17T20:42:01.034Z,40.73
2017-11-17T20:44:31.127Z,39.73
2017-11-17T20:47:01.064Z,38.00
2017-11-17T20:49:31.084Z,41.43
2017-11-17T20:52:01.165Z,40.27
2017-11-17T20:54:31.088Z,38.07
2017-11-17T20:57:01.313Z,37.87
2017-11-17T20:59:31.183Z,37.80
2017-11-17T21:02:01.095Z,39.97
2017-11-17T21:04:31.162Z,41.07
2017-11-17T21:07:01.229Z,39.67
2017-11-17T21:09:31.242Z,38.70
2017-11-17T21:12:01.264Z,39.13
2017-11-17T21:14:31.426Z,39.20
2017-11-17T21:17:01.371Z,40.43
2017-11-17T21:19:31.554Z,38.23
2017-11-17T21:22:01.471Z,37.53
2017-11-17T21:24:31.550Z,38.53
2017-11-17T21:27:01.545Z,38.70
2017-11-17T21:29:31.528Z,37.20
2017-11-17T21:32:01.574Z,53.03
2017-11-17T21:34:31.581Z,39.83
2017-11-17T21:37:02.280Z,39.17
2017-11-17T21:39:31.946Z,40.13
2017-11-17T21:42:01.851Z,39.93
2017-11-17T21:44:31.722Z,39.23
2017-11-17T21:47:01.970Z,41.57
2017-11-17T21:49:31.925Z,39.03
2017-11-17T21:52:01.793Z,40.50
2017-11-17T21:54:31.812Z,40.67
2017-11-17T21:57:02.138Z,42.47
2017-11-17T21:59:31.899Z,42.40
2017-11-17T22:02:02.065Z,42.27
2017-11-17T22:04:31.955Z,41.83
2017-11-17T22:07:02.103Z,40.33
2017-11-17T22:09:31.982Z,39.47
2017-11-17T22:12:02.244Z,44.00
2017-11-17T22:14:32.052Z,43.30
2017-11-17T22:17:02.053Z,44.17
2017-11-17T22:19:32.127Z,41.53
2017-11-17T22:22:02.228Z,42.00
2017-11-17T22:24:32.376Z,42.73
2017-11-17T22:27:02.335Z,40.60
2017-11-17T22:29:32.225Z,40.70
2017-11-17T22:32:02.357Z,40.43
2017-11-17T22:34:32.268Z,37.90
2017-11-17T22:37:02.429Z,38.40
2017-11-17T22:39:32.384Z,40.07
2017-11-17T22:42:02.419Z,38.60
2017-11-17T22:44:32.423Z,38.17
2017-11-17T22:47:02.480Z,37.10
2017-11-17T22:49:32.484Z,39.73
2017-11-17T22:52:02.510Z,40.20
2017-11-17T22:54:32.619Z,38.57
2017-11-17T22:57:02.647Z,38.77
2017-11-17T22:59:32.636Z,39.50
2017-11-17T23:02:02.742Z,37.93
2017-11-17T23:04:32.760Z,39.27
2017-11-17T23:07:02.781Z,40.80
2017-11-17T23:09:32.825Z,39.87
2017-11-17T23:12:02.800Z,40.27
2017-11-17T23:14:32.857Z,38.53
2017-11-17T23:17:02.835Z,40.37
2017-11-17T23:19:32.861Z,35.77
2017-11-17T23:22:02.884Z,37.07
2017-11-17T23:24:33.073Z,37.33
2017-11-17T23:27:03.143Z,37.40
2017-11-17T23:29:33.057Z,36.63
2017-11-17T23:32:03.051Z,35.67
2017-11-17T23:34:33.191Z,37.03
2017-11-17T23:37:03.190Z,36.07
2017-11-17T23:39:33.292Z,39.10
2017-11-17T23:42:03.147Z,37.80
2017-11-17T23:44:33.268Z,36.43
2017-11-17T23:47:03.287Z,36.97
2017-11-17T23:49:33.293Z,39.17
2017-11-17T23:52:03.283Z,40.27
2017-11-17T23:54:34.585Z,39.53
2017-11-17T23:57:04.191Z,41.80
2017-11-17T23:59:33.875Z,40.20
